createdAt,value
2022-11-21T00:00:19.839Z,93.59
2022-11-21T00:01:18.219Z,93.43
2022-11-21T00:02:14.896Z,92.63
2022-11-21T00:03:12.026Z,92.47
2022-11-21T00:04:08.625Z,92.59
2022-11-21T00:05:05.557Z,92.89
2022-11-21T00:06:03.240Z,93.67
2022-11-21T00:06:59.879Z,94.06
2022-11-21T00:07:57.029Z,93.85
2022-11-21T00:08:53.925Z,94.12
2022-11-21T00:09:50.460Z,94.59
2022-11-21T00:10:48.022Z,95.20
2022-11-21T00:11:44.645Z,95.21
2022-11-21T00:12:41.259Z,95.58
2022-11-21T00:13:38.014Z,95.44
2022-11-21T00:14:34.838Z,95.13
2022-11-21T00:15:31.470Z,95.54
2022-11-21T00:16:28.105Z,95.51
2022-11-21T00:17:24.732Z,96.00
2022-11-21T00:18:21.289Z,96.44
2022-11-21T00:19:17.963Z,96.92
2022-11-21T00:20:14.687Z,96.55
2022-11-21T00:21:16.699Z,95.84
2022-11-21T00:22:13.282Z,95.48
2022-11-21T00:23:10.658Z,94.59
2022-11-21T00:24:09.789Z,93.97
2022-11-21T00:25:07.152Z,93.85
2022-11-21T00:26:07.441Z,93.97
2022-11-21T00:27:04.098Z,94.38
2022-11-21T00:28:00.667Z,93.68
2022-11-21T00:28:57.212Z,93.05
2022-11-21T00:29:53.772Z,92.67
2022-11-21T00:30:50.385Z,92.67
2022-11-21T00:31:47.060Z,92.80
2022-11-21T00:32:43.662Z,92.77
2022-11-21T00:33:40.322Z,92.67
2022-11-21T00:34:36.858Z,92.69
2022-11-21T00:35:33.461Z,92.45
2022-11-21T00:36:30.057Z,92.45
2022-11-21T00:37:26.647Z,91.86
2022-11-21T00:38:24.483Z,91.54
2022-11-21T00:39:21.100Z,91.33
2022-11-21T00:40:18.340Z,91.64
2022-11-21T00:41:14.898Z,92.21
2022-11-21T00:42:11.540Z,92.22
2022-11-21T00:43:08.111Z,91.78
2022-11-21T00:44:04.854Z,92.05
2022-11-21T00:45:01.486Z,92.14
2022-11-21T00:46:01.376Z,91.90
2022-11-21T00:46:57.991Z,91.84
2022-11-21T00:47:54.529Z,91.74
2022-11-21T00:48:51.138Z,90.82
2022-11-21T00:49:48.229Z,89.79
2022-11-21T00:50:44.835Z,89.55
2022-11-21T00:51:41.447Z,90.17
2022-11-21T00:52:38.128Z,90.80
2022-11-21T00:53:35.039Z,92.02
2022-11-21T00:54:31.589Z,93.62
2022-11-21T00:55:28.165Z,94.41
2022-11-21T00:56:24.738Z,94.88
2022-11-21T00:57:21.324Z,95.53
2022-11-21T00:58:17.916Z,95.37
2022-11-21T00:59:14.567Z,95.10
2022-11-21T01:00:12.078Z,94.47
2022-11-21T01:01:15.905Z,94.71
2022-11-21T01:02:13.880Z,94.79
2022-11-21T01:03:10.562Z,94.54
2022-11-21T01:04:07.192Z,94.75
2022-11-21T01:05:03.890Z,94.97
2022-11-21T01:06:05.161Z,95.15
2022-11-21T01:07:01.894Z,95.47
2022-11-21T01:07:58.711Z,94.90
2022-11-21T01:08:55.279Z,95.31
2022-11-21T01:09:51.893Z,95.22
2022-11-21T01:10:48.404Z,95.88
2022-11-21T01:11:44.956Z,96.13
2022-11-21T01:12:41.658Z,96.47
2022-11-21T01:13:38.324Z,96.01
2022-11-21T01:14:34.918Z,95.67
2022-11-21T01:15:31.591Z,95.64
2022-11-21T01:16:29.517Z,95.08
2022-11-21T01:17:26.109Z,94.07
2022-11-21T01:18:22.710Z,93.27
2022-11-21T01:19:19.359Z,92.91
2022-11-21T01:20:16.062Z,92.29
2022-11-21T01:21:17.950Z,91.99
2022-11-21T01:22:14.517Z,92.08
2022-11-21T01:23:11.222Z,92.05
2022-11-21T01:24:10.609Z,91.84
2022-11-21T01:25:07.537Z,91.42
2022-11-21T01:26:05.837Z,90.98
2022-11-21T01:27:02.481Z,90.94
2022-11-21T01:27:59.078Z,91.50
2022-11-21T01:28:55.701Z,91.98
2022-11-21T01:29:52.604Z,92.11
2022-11-21T01:30:49.158Z,91.32
2022-11-21T01:31:45.717Z,90.57
2022-11-21T01:32:42.366Z,90.57
2022-11-21T01:33:39.519Z,89.36
2022-11-21T01:34:36.113Z,89.33
2022-11-21T01:35:32.685Z,89.34
2022-11-21T01:36:33.028Z,89.09
2022-11-21T01:37:29.745Z,88.55
2022-11-21T01:38:26.338Z,89.35
2022-11-21T01:39:22.984Z,89.35
2022-11-21T01:40:19.591Z,89.28
2022-11-21T01:41:25.350Z,88.63
2022-11-21T01:42:21.974Z,88.56
2022-11-21T01:43:18.560Z,88.86
2022-11-21T01:44:18.092Z,88.66
2022-11-21T01:45:51.637Z,88.20
2022-11-21T01:46:49.507Z,86.31
2022-11-21T01:47:46.115Z,86.15
2022-11-21T01:48:53.037Z,85.08
2022-11-21T01:49:51.673Z,85.58
2022-11-21T01:50:48.458Z,85.45
2022-11-21T01:51:49.940Z,84.65
2022-11-21T01:52:46.531Z,84.49
2022-11-21T01:53:47.598Z,86.11
2022-11-21T01:54:44.185Z,85.99
2022-11-21T01:55:40.774Z,85.07
2022-11-21T01:56:45.117Z,84.71
2022-11-21T01:57:45.315Z,84.22
2022-11-21T01:58:44.507Z,86.40
2022-11-21T02:00:37.210Z,88.50
2022-11-21T02:01:36.196Z,89.19
2022-11-21T02:02:36.837Z,87.03
2022-11-21T02:03:37.949Z,85.91
2022-11-21T02:04:35.899Z,86.59
2022-11-21T02:05:35.605Z,85.86
2022-11-21T02:06:35.064Z,84.00
2022-11-21T02:07:39.367Z,83.58
2022-11-21T02:08:37.183Z,84.06
2022-11-21T02:09:37.635Z,84.88
2022-11-21T02:10:36.832Z,85.96
2022-11-21T02:11:56.417Z,88.06
2022-11-21T02:12:55.714Z,88.48
2022-11-21T02:13:52.886Z,88.86
2022-11-21T02:14:50.105Z,88.21
2022-11-21T02:15:46.693Z,87.18
2022-11-21T02:16:43.329Z,86.58
2022-11-21T02:17:39.978Z,85.63
2022-11-21T02:18:36.574Z,85.41
2022-11-21T02:20:14.785Z,84.90
2022-11-21T02:21:42.158Z,86.49
2022-11-21T02:22:53.671Z,85.67
2022-11-21T02:24:08.801Z,83.75
2022-11-21T02:25:09.646Z,82.29
2022-11-21T02:26:06.285Z,83.17
2022-11-21T02:27:03.833Z,84.37
2022-11-21T02:28:07.000Z,82.74
2022-11-21T02:29:04.678Z,85.50
2022-11-21T02:30:03.907Z,87.57
2022-11-21T02:31:00.499Z,88.41
2022-11-21T02:32:00.610Z,89.42
2022-11-21T02:32:57.264Z,89.09
2022-11-21T02:33:53.869Z,87.42
2022-11-21T02:34:50.606Z,86.77
2022-11-21T02:35:59.859Z,87.52
2022-11-21T02:36:57.373Z,87.43
2022-11-21T02:37:59.640Z,87.54
2022-11-21T02:38:56.270Z,88.67
2022-11-21T02:39:53.805Z,88.33
2022-11-21T02:41:02.518Z,87.80
2022-11-21T02:42:28.782Z,86.56
2022-11-21T02:43:36.880Z,88.09
2022-11-21T02:44:43.825Z,89.69
2022-11-21T02:45:43.087Z,90.76
2022-11-21T02:46:48.272Z,89.44
2022-11-21T02:47:46.382Z,89.41
2022-11-21T02:48:43.633Z,89.02
2022-11-21T02:50:03.483Z,89.48
2022-11-21T02:51:00.221Z,89.49
2022-11-21T02:51:56.809Z,90.66
2022-11-21T02:52:53.371Z,90.69
2022-11-21T02:53:49.900Z,90.62
2022-11-21T02:54:46.479Z,90.05
2022-11-21T02:55:43.555Z,89.88
2022-11-21T02:56:40.189Z,89.21
2022-11-21T02:57:36.758Z,88.75
2022-11-21T02:58:33.382Z,89.23
2022-11-21T02:59:29.917Z,87.89
2022-11-21T03:00:26.472Z,87.83
2022-11-21T03:01:23.166Z,87.29
2022-11-21T03:02:19.781Z,86.87
2022-11-21T03:03:16.334Z,87.05
2022-11-21T03:04:12.969Z,88.62
2022-11-21T03:05:11.470Z,89.56
2022-11-21T03:06:08.132Z,90.02
2022-11-21T03:07:04.776Z,87.72
2022-11-21T03:08:01.482Z,85.53
2022-11-21T03:08:58.241Z,85.40
2022-11-21T03:09:54.850Z,82.46
2022-11-21T03:10:51.397Z,84.06
2022-11-21T03:11:48.028Z,85.63
2022-11-21T03:12:44.754Z,86.58
2022-11-21T03:13:41.345Z,88.61
2022-11-21T03:14:37.983Z,87.97
2022-11-21T03:15:35.437Z,85.13
2022-11-21T03:16:32.039Z,82.47
2022-11-21T03:17:28.585Z,80.58
2022-11-21T03:18:25.169Z,80.34
2022-11-21T03:19:21.703Z,80.46
2022-11-21T03:20:18.360Z,80.70
2022-11-21T03:21:14.953Z,80.33
2022-11-21T03:22:13.064Z,78.48
2022-11-21T03:23:09.619Z,78.22
2022-11-21T03:24:06.899Z,78.63
2022-11-21T03:25:03.853Z,79.01
2022-11-21T03:26:00.423Z,78.14
2022-11-21T03:26:57.118Z,79.33
2022-11-21T03:27:54.502Z,78.01
2022-11-21T03:28:51.097Z,79.01
2022-11-21T03:29:47.642Z,79.47
2022-11-21T03:30:44.220Z,79.63
2022-11-21T03:31:41.048Z,80.38
2022-11-21T03:32:37.614Z,81.29
2022-11-21T03:33:34.230Z,80.93
2022-11-21T03:34:30.797Z,81.58
2022-11-21T03:35:27.408Z,83.25
2022-11-21T03:36:24.097Z,82.34
2022-11-21T03:37:20.816Z,83.06
2022-11-21T03:38:17.563Z,83.16
2022-11-21T03:39:14.153Z,84.22
2022-11-21T03:40:11.833Z,83.02
2022-11-21T03:41:28.374Z,83.47
2022-11-21T03:42:24.939Z,82.79
2022-11-21T03:43:21.533Z,82.83
2022-11-21T03:44:18.130Z,81.89
2022-11-21T03:45:14.734Z,80.25
2022-11-21T03:46:11.340Z,82.18
2022-11-21T03:47:08.008Z,82.49
2022-11-21T03:48:04.819Z,82.09
2022-11-21T03:49:02.039Z,82.74
2022-11-21T03:49:58.612Z,82.44
2022-11-21T03:50:55.184Z,83.38
2022-11-21T03:51:51.763Z,84.96
2022-11-21T03:52:48.406Z,84.97
2022-11-21T03:53:45.007Z,84.31
2022-11-21T03:54:41.628Z,83.53
2022-11-21T03:55:38.219Z,84.53
2022-11-21T03:56:35.548Z,84.80
2022-11-21T03:57:32.095Z,86.05
2022-11-21T03:58:28.693Z,86.15
2022-11-21T03:59:26.206Z,86.16
2022-11-21T04:00:22.918Z,86.29
2022-11-21T04:01:19.954Z,86.24
2022-11-21T04:02:16.585Z,86.02
2022-11-21T04:03:13.205Z,86.37
2022-11-21T04:04:09.806Z,86.43
2022-11-21T04:05:06.661Z,87.59
2022-11-21T04:06:03.280Z,88.65
2022-11-21T04:06:59.891Z,88.26
2022-11-21T04:07:56.623Z,87.71
2022-11-21T04:08:53.272Z,87.40
2022-11-21T04:09:49.835Z,89.00
2022-11-21T04:10:50.963Z,89.26
2022-11-21T04:11:47.551Z,89.39
2022-11-21T04:12:44.123Z,89.37
2022-11-21T04:13:40.754Z,89.73
2022-11-21T04:14:37.332Z,89.05
2022-11-21T04:15:33.882Z,88.99
2022-11-21T04:16:30.438Z,89.61
2022-11-21T04:17:27.229Z,88.88
2022-11-21T04:18:24.019Z,88.10
2022-11-21T04:19:20.595Z,88.19
2022-11-21T04:20:17.327Z,88.16
2022-11-21T04:21:13.932Z,87.93
2022-11-21T04:22:10.564Z,86.84
2022-11-21T04:23:07.621Z,86.79
2022-11-21T04:24:04.531Z,85.89
2022-11-21T04:25:01.138Z,85.34
2022-11-21T04:25:58.133Z,87.20
2022-11-21T04:26:55.558Z,88.41
2022-11-21T04:27:55.754Z,88.62
2022-11-21T04:28:52.354Z,89.06
2022-11-21T04:29:48.903Z,89.29
2022-11-21T04:30:45.625Z,88.89
2022-11-21T04:31:42.221Z,88.65
2022-11-21T04:32:38.783Z,88.52
2022-11-21T04:33:35.519Z,88.58
2022-11-21T04:34:32.209Z,88.50
2022-11-21T04:35:28.769Z,88.46
2022-11-21T04:36:25.386Z,88.92
2022-11-21T04:37:22.137Z,89.38
2022-11-21T04:38:18.719Z,89.40
2022-11-21T04:39:15.341Z,88.76
2022-11-21T04:40:13.317Z,88.63
2022-11-21T04:41:09.965Z,88.48
2022-11-21T04:42:06.530Z,88.23
2022-11-21T04:43:03.879Z,89.10
2022-11-21T04:44:00.562Z,89.53
2022-11-21T04:44:57.233Z,89.68
2022-11-21T04:45:53.844Z,89.91
2022-11-21T04:46:50.447Z,90.07
2022-11-21T04:47:47.448Z,90.43
2022-11-21T04:48:44.043Z,90.90
2022-11-21T04:49:40.688Z,90.76
2022-11-21T04:50:37.659Z,90.37
2022-11-21T04:51:34.346Z,90.73
2022-11-21T04:52:30.959Z,89.45
2022-11-21T04:53:27.594Z,88.60
2022-11-21T04:54:24.167Z,88.29
2022-11-21T04:55:23.039Z,88.18
2022-11-21T04:56:19.638Z,87.90
2022-11-21T04:57:16.221Z,87.81
2022-11-21T04:58:12.837Z,88.19
2022-11-21T04:59:11.961Z,87.99
2022-11-21T05:00:09.158Z,87.65
2022-11-21T05:01:07.907Z,88.28
2022-11-21T05:02:04.767Z,88.57
2022-11-21T05:03:03.858Z,89.18
2022-11-21T05:04:00.436Z,88.92
2022-11-21T05:04:56.966Z,88.35
2022-11-21T05:05:53.527Z,88.66
2022-11-21T05:06:50.149Z,88.55
2022-11-21T05:07:46.764Z,88.32
2022-11-21T05:08:45.644Z,87.82
2022-11-21T05:09:45.661Z,87.50
2022-11-21T05:11:02.396Z,88.02
2022-11-21T05:12:17.486Z,86.46
2022-11-21T05:13:22.870Z,86.04
2022-11-21T05:14:19.588Z,87.04
2022-11-21T05:15:20.358Z,86.52
2022-11-21T05:16:19.829Z,86.85
2022-11-21T05:17:17.283Z,86.51
2022-11-21T05:18:13.846Z,87.40
2022-11-21T05:19:10.536Z,87.47
2022-11-21T05:20:07.740Z,87.58
2022-11-21T05:21:04.440Z,86.69
2022-11-21T05:22:01.011Z,86.56
2022-11-21T05:22:57.574Z,86.33
2022-11-21T05:23:54.116Z,85.50
2022-11-21T05:24:50.697Z,85.22
2022-11-21T05:25:47.289Z,84.94
2022-11-21T05:26:43.827Z,85.11
2022-11-21T05:27:40.429Z,85.03
2022-11-21T05:28:37.099Z,85.11
2022-11-21T05:29:33.788Z,85.44
2022-11-21T05:30:30.386Z,85.39
2022-11-21T05:31:27.082Z,86.08
2022-11-21T05:32:24.761Z,85.57
2022-11-21T05:33:21.427Z,85.50
2022-11-21T05:34:18.017Z,85.59
2022-11-21T05:35:14.646Z,85.94
2022-11-21T05:36:11.223Z,85.72
2022-11-21T05:37:07.825Z,86.08
2022-11-21T05:38:04.418Z,86.59
2022-11-21T05:39:01.019Z,86.40
2022-11-21T05:39:57.763Z,86.77
2022-11-21T05:40:54.396Z,86.78
2022-11-21T05:41:51.741Z,86.92
2022-11-21T05:43:06.624Z,87.21
2022-11-21T05:44:03.303Z,86.84
2022-11-21T05:44:59.822Z,85.97
2022-11-21T05:45:56.410Z,86.41
2022-11-21T05:46:53.004Z,87.23
2022-11-21T05:47:49.596Z,87.20
2022-11-21T05:48:47.582Z,86.71
2022-11-21T05:49:44.173Z,86.74
2022-11-21T05:50:40.771Z,87.27
2022-11-21T05:51:37.412Z,86.66
2022-11-21T05:52:34.027Z,87.35
2022-11-21T05:53:34.888Z,87.60
2022-11-21T05:54:31.476Z,87.30
2022-11-21T05:55:28.069Z,86.72
2022-11-21T05:56:24.919Z,86.95
2022-11-21T05:57:21.531Z,86.68
2022-11-21T05:58:18.151Z,86.24
2022-11-21T05:59:14.732Z,86.01
2022-11-21T06:00:11.818Z,86.02
2022-11-21T06:01:09.816Z,86.22
2022-11-21T06:02:24.978Z,86.67
2022-11-21T06:03:27.283Z,85.97
2022-11-21T06:04:23.960Z,85.99
2022-11-21T06:05:20.586Z,86.92
2022-11-21T06:06:22.191Z,87.46
2022-11-21T06:07:21.329Z,87.29
2022-11-21T06:08:18.001Z,88.10
2022-11-21T06:09:14.642Z,88.84
2022-11-21T06:10:11.307Z,89.31
2022-11-21T06:11:09.645Z,89.84
2022-11-21T06:12:06.286Z,90.16
2022-11-21T06:13:03.168Z,90.10
2022-11-21T06:13:59.790Z,90.00
2022-11-21T06:14:56.373Z,90.24
2022-11-21T06:15:53.094Z,90.48
2022-11-21T06:16:50.540Z,90.32
2022-11-21T06:17:47.084Z,90.62
2022-11-21T06:18:46.303Z,90.59
2022-11-21T06:19:42.837Z,90.78
2022-11-21T06:20:39.409Z,90.46
2022-11-21T06:21:37.301Z,90.56
2022-11-21T06:22:33.934Z,90.53
2022-11-21T06:23:31.345Z,90.51
2022-11-21T06:24:28.161Z,90.64
2022-11-21T06:25:24.927Z,90.81
2022-11-21T06:26:23.825Z,90.29
2022-11-21T06:27:20.362Z,90.36
2022-11-21T06:28:16.931Z,90.31
2022-11-21T06:29:13.624Z,90.10
2022-11-21T06:30:10.717Z,90.35
2022-11-21T06:31:12.746Z,90.61
2022-11-21T06:32:09.385Z,90.80
2022-11-21T06:33:07.311Z,90.55
2022-11-21T06:34:04.055Z,90.32
2022-11-21T06:35:00.624Z,90.33
2022-11-21T06:35:57.219Z,90.26
2022-11-21T06:36:53.921Z,90.28
2022-11-21T06:37:53.568Z,90.17
2022-11-21T06:38:50.737Z,90.22
2022-11-21T06:39:48.777Z,90.24
2022-11-21T06:40:45.589Z,90.25
2022-11-21T06:41:42.182Z,90.11
2022-11-21T06:42:38.762Z,90.47
2022-11-21T06:43:35.481Z,90.23
2022-11-21T06:44:32.043Z,90.42
2022-11-21T06:45:28.761Z,90.56
2022-11-21T06:46:25.375Z,90.75
2022-11-21T06:47:21.984Z,90.55
2022-11-21T06:48:18.578Z,90.42
2022-11-21T06:49:15.118Z,90.45
2022-11-21T06:50:11.659Z,89.66
2022-11-21T06:51:13.035Z,90.38
2022-11-21T06:52:09.645Z,90.45
2022-11-21T06:53:06.337Z,90.05
2022-11-21T06:54:02.957Z,90.66
2022-11-21T06:54:59.984Z,90.54
2022-11-21T06:55:59.850Z,91.25
2022-11-21T06:56:56.406Z,90.67
2022-11-21T06:57:53.939Z,91.01
2022-11-21T06:58:50.586Z,90.84
2022-11-21T06:59:47.204Z,90.81
2022-11-21T07:00:44.452Z,91.00
2022-11-21T07:01:41.032Z,90.39
2022-11-21T07:02:37.635Z,90.64
2022-11-21T07:03:34.852Z,90.47
2022-11-21T07:04:31.457Z,90.24
2022-11-21T07:05:28.598Z,90.24
2022-11-21T07:06:25.213Z,89.87
2022-11-21T07:07:22.250Z,90.44
2022-11-21T07:08:18.836Z,90.80
2022-11-21T07:09:32.877Z,91.01
2022-11-21T07:10:31.190Z,91.69
2022-11-21T07:11:28.459Z,91.88
2022-11-21T07:12:43.564Z,92.04
2022-11-21T07:13:40.388Z,92.04
2022-11-21T07:14:36.991Z,92.63
2022-11-21T07:15:33.546Z,92.53
2022-11-21T07:16:30.811Z,93.01
2022-11-21T07:17:27.456Z,93.54
2022-11-21T07:18:23.994Z,93.85
2022-11-21T07:19:20.667Z,94.07
2022-11-21T07:20:17.266Z,94.47
2022-11-21T07:21:13.946Z,94.28
2022-11-21T07:22:10.505Z,95.11
2022-11-21T07:23:08.582Z,95.28
2022-11-21T07:24:05.827Z,95.09
2022-11-21T07:25:02.581Z,95.23
2022-11-21T07:26:04.131Z,94.09
2022-11-21T07:27:02.209Z,93.76
2022-11-21T07:27:59.895Z,93.13
2022-11-21T07:28:56.514Z,92.83
2022-11-21T07:29:53.103Z,92.48
2022-11-21T07:30:50.027Z,91.91
2022-11-21T07:31:46.636Z,91.56
2022-11-21T07:32:43.282Z,91.34
2022-11-21T07:33:39.881Z,91.21
2022-11-21T07:34:36.540Z,91.51
2022-11-21T07:35:34.183Z,91.51
2022-11-21T07:36:32.813Z,91.18
2022-11-21T07:37:29.401Z,90.75
2022-11-21T07:38:26.541Z,91.00
2022-11-21T07:39:23.234Z,91.29
2022-11-21T07:40:20.834Z,91.15
2022-11-21T07:41:17.387Z,91.00
2022-11-21T07:42:14.050Z,90.07
2022-11-21T07:43:11.165Z,90.05
2022-11-21T07:44:07.943Z,90.49
2022-11-21T07:45:05.019Z,91.20
2022-11-21T07:46:01.719Z,90.41
2022-11-21T07:46:58.324Z,89.86
2022-11-21T07:47:59.661Z,89.51
2022-11-21T07:49:00.568Z,90.31
2022-11-21T07:49:59.592Z,89.77
2022-11-21T07:50:56.218Z,89.62
2022-11-21T07:51:52.859Z,89.72
2022-11-21T07:52:49.394Z,89.88
2022-11-21T07:53:45.995Z,90.46
2022-11-21T07:54:42.597Z,90.26
2022-11-21T07:55:40.962Z,90.40
2022-11-21T07:56:37.812Z,89.65
2022-11-21T07:57:34.491Z,89.02
2022-11-21T07:58:31.167Z,89.22
2022-11-21T07:59:28.206Z,88.84
2022-11-21T08:00:25.205Z,88.54
2022-11-21T08:01:21.891Z,87.47
2022-11-21T08:02:20.736Z,87.17
2022-11-21T08:03:17.305Z,87.18
2022-11-21T08:04:13.868Z,87.29
2022-11-21T08:05:10.474Z,87.49
2022-11-21T08:06:07.110Z,88.72
2022-11-21T08:07:03.802Z,87.96
2022-11-21T08:08:00.448Z,87.61
2022-11-21T08:08:56.999Z,86.25
2022-11-21T08:09:53.749Z,86.60
2022-11-21T08:10:51.525Z,87.83
2022-11-21T08:11:48.426Z,87.29
2022-11-21T08:12:45.502Z,86.94
2022-11-21T08:13:42.063Z,86.98
2022-11-21T08:14:39.119Z,86.63
2022-11-21T08:15:36.628Z,87.18
2022-11-21T08:16:33.231Z,86.60
2022-11-21T08:17:29.873Z,86.09
2022-11-21T08:18:26.502Z,85.44
2022-11-21T08:19:23.074Z,84.84
2022-11-21T08:20:19.686Z,85.39
2022-11-21T08:21:19.843Z,86.03
2022-11-21T08:22:16.777Z,85.45
2022-11-21T08:23:13.404Z,85.63
2022-11-21T08:24:14.570Z,85.36
2022-11-21T08:25:11.559Z,85.22
2022-11-21T08:26:10.479Z,85.05
2022-11-21T08:27:07.034Z,84.59
2022-11-21T08:28:04.222Z,84.08
2022-11-21T08:29:00.856Z,83.79
2022-11-21T08:29:57.407Z,82.96
2022-11-21T08:30:54.308Z,82.44
2022-11-21T08:31:51.022Z,82.53
2022-11-21T08:32:47.579Z,81.02
2022-11-21T08:33:44.250Z,82.69
2022-11-21T08:34:40.924Z,84.06
2022-11-21T08:35:42.187Z,82.64
2022-11-21T08:36:38.811Z,83.19
2022-11-21T08:37:35.473Z,83.42
2022-11-21T08:38:32.536Z,82.31
2022-11-21T08:39:31.035Z,82.55
2022-11-21T08:40:29.896Z,82.86
2022-11-21T08:41:45.401Z,82.93
2022-11-21T08:42:41.983Z,82.63
2022-11-21T08:43:38.677Z,81.91
2022-11-21T08:44:35.617Z,82.84
2022-11-21T08:45:34.016Z,83.05
2022-11-21T08:46:33.660Z,81.16
2022-11-21T08:47:33.170Z,81.77
2022-11-21T08:48:29.771Z,81.63
2022-11-21T08:49:26.677Z,81.33
2022-11-21T08:50:24.319Z,81.36
2022-11-21T08:51:21.825Z,81.33
2022-11-21T08:52:18.511Z,80.89
2022-11-21T08:53:15.257Z,81.15
2022-11-21T08:54:11.928Z,82.12
2022-11-21T08:55:09.303Z,81.70
2022-11-21T08:56:05.910Z,80.68
2022-11-21T08:57:02.671Z,78.58
2022-11-21T08:57:59.510Z,78.88
2022-11-21T08:58:56.475Z,79.49
2022-11-21T08:59:53.056Z,80.55
2022-11-21T09:00:49.822Z,79.26
2022-11-21T09:01:46.558Z,78.36
2022-11-21T09:02:43.286Z,78.96
2022-11-21T09:03:40.102Z,80.78
2022-11-21T09:04:36.724Z,80.73
2022-11-21T09:05:34.241Z,80.95
2022-11-21T09:06:31.535Z,80.28
2022-11-21T09:07:28.203Z,79.21
2022-11-21T09:08:24.926Z,79.37
2022-11-21T09:09:25.294Z,77.59
2022-11-21T09:10:22.349Z,78.46
2022-11-21T09:11:19.032Z,80.24
2022-11-21T09:12:15.747Z,78.27
2022-11-21T09:13:12.454Z,77.95
2022-11-21T09:14:28.130Z,78.54
2022-11-21T09:15:43.891Z,78.82
2022-11-21T09:17:01.988Z,78.84
2022-11-21T09:18:05.574Z,77.98
2022-11-21T09:19:02.185Z,76.69
2022-11-21T09:19:59.271Z,75.72
2022-11-21T09:20:56.013Z,76.79
2022-11-21T09:21:52.635Z,77.52
2022-11-21T09:22:49.213Z,78.42
2022-11-21T09:23:47.035Z,79.99
2022-11-21T09:24:43.784Z,79.81
2022-11-21T09:25:40.787Z,78.58
2022-11-21T09:26:37.378Z,77.26
2022-11-21T09:27:34.016Z,75.67
2022-11-21T09:28:30.598Z,76.54
2022-11-21T09:29:27.497Z,77.29
2022-11-21T09:30:24.246Z,78.88
2022-11-21T09:31:20.760Z,77.74
2022-11-21T09:32:17.363Z,78.35
2022-11-21T09:33:16.843Z,75.67
2022-11-21T09:34:13.678Z,77.47
2022-11-21T09:35:10.346Z,75.66
2022-11-21T09:36:06.983Z,75.27
2022-11-21T09:37:03.538Z,76.12
2022-11-21T09:38:00.433Z,76.43
2022-11-21T09:38:56.990Z,76.76
2022-11-21T09:39:53.570Z,75.22
2022-11-21T09:40:50.162Z,77.01
2022-11-21T09:41:55.922Z,77.33
2022-11-21T09:43:11.265Z,77.03
2022-11-21T09:44:22.622Z,76.83
2022-11-21T09:45:37.367Z,77.80
2022-11-21T09:46:41.627Z,76.69
2022-11-21T09:47:43.818Z,77.72
2022-11-21T09:48:54.539Z,74.78
2022-11-21T09:50:01.816Z,77.41
2022-11-21T09:51:07.829Z,79.14
2022-11-21T09:52:05.108Z,77.42
2022-11-21T09:53:26.162Z,77.42
2022-11-21T09:54:32.051Z,77.20
2022-11-21T09:55:34.773Z,76.52
2022-11-21T09:56:36.694Z,77.21
2022-11-21T09:57:35.922Z,76.26
2022-11-21T09:58:41.589Z,75.37
2022-11-21T09:59:40.431Z,74.03
2022-11-21T10:00:37.055Z,75.50
2022-11-21T10:01:34.005Z,75.23
2022-11-21T10:02:30.634Z,75.15
2022-11-21T10:03:35.975Z,76.62
2022-11-21T10:04:32.595Z,76.25
2022-11-21T10:05:47.045Z,76.52
2022-11-21T10:07:04.019Z,78.50
2022-11-21T10:08:08.972Z,75.13
2022-11-21T10:09:27.029Z,74.87
2022-11-21T10:10:45.247Z,76.63
2022-11-21T10:12:18.503Z,76.11
2022-11-21T10:13:36.374Z,75.41
2022-11-21T10:14:46.114Z,75.27
2022-11-21T10:15:57.512Z,73.36
2022-11-21T10:17:06.102Z,74.13
2022-11-21T10:18:40.302Z,75.64
2022-11-21T10:20:08.595Z,74.16
2022-11-21T10:21:51.543Z,73.71
2022-11-21T10:23:18.557Z,72.93
2022-11-21T10:24:39.376Z,70.30
2022-11-21T10:25:39.863Z,74.11
2022-11-21T10:26:46.249Z,72.47
2022-11-21T10:27:53.975Z,72.83
2022-11-21T10:28:55.790Z,73.56
2022-11-21T10:30:04.649Z,71.34
2022-11-21T10:31:04.390Z,73.00
2022-11-21T10:32:24.930Z,72.16
2022-11-21T10:33:36.428Z,73.82
2022-11-21T10:34:37.597Z,75.13
2022-11-21T10:35:40.557Z,74.85
2022-11-21T10:36:43.944Z,75.24
2022-11-21T10:37:45.679Z,76.09
2022-11-21T10:38:44.754Z,74.70
2022-11-21T10:39:45.405Z,76.47
2022-11-21T10:40:50.352Z,75.58
2022-11-21T10:42:01.280Z,73.97
2022-11-21T10:43:28.800Z,72.30
2022-11-21T10:44:46.381Z,73.24
2022-11-21T10:45:42.990Z,75.50
2022-11-21T10:46:39.610Z,74.82
2022-11-21T10:47:37.952Z,73.84
2022-11-21T10:48:34.652Z,74.57
2022-11-21T10:49:34.373Z,74.56
2022-11-21T10:50:52.447Z,73.67
2022-11-21T10:52:21.318Z,74.57
2022-11-21T10:53:39.302Z,74.66
2022-11-21T10:55:05.048Z,72.75
2022-11-21T10:56:05.948Z,73.45
2022-11-21T10:57:12.794Z,74.40
2022-11-21T10:58:18.970Z,75.16
2022-11-21T10:59:31.343Z,76.23
2022-11-21T11:00:28.275Z,73.23
2022-11-21T11:01:33.393Z,73.69
2022-11-21T11:02:30.206Z,71.29
2022-11-21T11:03:28.256Z,72.35
2022-11-21T11:04:45.879Z,74.04
2022-11-21T11:05:56.048Z,73.35
2022-11-21T11:06:52.729Z,72.41
2022-11-21T11:08:03.014Z,73.65
2022-11-21T11:08:59.729Z,75.43
2022-11-21T11:10:27.676Z,73.08
2022-11-21T11:11:26.221Z,72.57
2022-11-21T11:12:25.828Z,72.02
2022-11-21T11:13:50.896Z,73.31
2022-11-21T11:14:54.168Z,74.01
2022-11-21T11:16:17.889Z,73.98
2022-11-21T11:17:14.868Z,73.91
2022-11-21T11:18:14.599Z,72.99
2022-11-21T11:19:13.906Z,71.26
2022-11-21T11:20:48.956Z,70.48
2022-11-21T11:21:45.958Z,70.47
2022-11-21T11:22:42.654Z,71.77
2022-11-21T11:23:39.485Z,71.71
2022-11-21T11:24:36.231Z,70.31
2022-11-21T11:25:35.106Z,70.16
2022-11-21T11:26:32.030Z,70.85
2022-11-21T11:27:29.682Z,69.56
2022-11-21T11:28:33.646Z,69.43
2022-11-21T11:29:34.660Z,71.35
2022-11-21T11:30:37.326Z,71.61
2022-11-21T11:31:52.136Z,70.03
2022-11-21T11:32:48.804Z,70.07
2022-11-21T11:33:48.347Z,72.31
2022-11-21T11:34:50.855Z,69.85
2022-11-21T11:35:47.378Z,69.54
2022-11-21T11:37:09.416Z,67.94
2022-11-21T11:38:11.690Z,69.39
2022-11-21T11:39:39.227Z,69.87
2022-11-21T11:40:43.996Z,70.22
2022-11-21T11:42:32.055Z,68.28
2022-11-21T11:44:19.553Z,70.58
2022-11-21T11:45:49.104Z,67.86
2022-11-21T11:47:27.149Z,68.27
2022-11-21T11:48:23.760Z,67.07
2022-11-21T11:49:57.083Z,66.91
2022-11-21T11:51:00.431Z,66.10
2022-11-21T11:52:02.750Z,66.49
2022-11-21T11:53:15.430Z,67.00
2022-11-21T11:54:26.716Z,65.73
2022-11-21T11:55:44.962Z,66.09
2022-11-21T11:56:43.510Z,65.58
2022-11-21T11:57:41.570Z,66.86
2022-11-21T11:58:56.386Z,66.84
2022-11-21T12:00:19.403Z,64.09
2022-11-21T12:01:33.151Z,64.58
2022-11-21T12:03:16.052Z,63.24
2022-11-21T12:04:16.860Z,63.29
2022-11-21T12:05:21.204Z,65.34
2022-11-21T12:07:41.059Z,63.88
2022-11-21T12:09:51.267Z,64.78
2022-11-21T12:11:14.968Z,64.07
2022-11-21T12:12:23.314Z,62.72
2022-11-21T12:13:21.059Z,62.05
2022-11-21T12:14:54.901Z,64.00
2022-11-21T12:15:59.956Z,64.98
2022-11-21T12:17:01.553Z,63.02
2022-11-21T12:18:19.431Z,63.54
2022-11-21T12:19:17.746Z,64.09
2022-11-21T12:20:28.574Z,62.45
2022-11-21T12:21:25.552Z,61.69
2022-11-21T12:22:22.291Z,63.58
2022-11-21T12:23:20.006Z,63.59
2022-11-21T12:24:20.913Z,64.87
2022-11-21T12:25:21.080Z,65.07
2022-11-21T12:26:31.002Z,65.01
2022-11-21T12:27:31.739Z,66.44
2022-11-21T12:28:40.970Z,66.84
2022-11-21T12:29:43.244Z,68.06
2022-11-21T12:31:07.434Z,64.98
2022-11-21T12:32:06.782Z,65.34
2022-11-21T12:33:09.008Z,66.00
2022-11-21T12:34:18.195Z,65.91
2022-11-21T12:35:31.819Z,66.48
2022-11-21T12:36:54.462Z,66.66
2022-11-21T12:38:16.121Z,67.14
2022-11-21T12:39:28.395Z,68.18
2022-11-21T12:41:22.517Z,66.40
2022-11-21T12:42:49.355Z,65.78
2022-11-21T12:43:57.938Z,67.79
2022-11-21T12:45:06.649Z,66.86
2022-11-21T12:46:15.122Z,66.02
2022-11-21T12:48:19.838Z,65.80
2022-11-21T12:50:05.863Z,67.60
2022-11-21T12:51:58.099Z,66.64
2022-11-21T12:53:25.693Z,67.08
2022-11-21T12:54:52.659Z,68.58
2022-11-21T12:55:55.290Z,67.82
2022-11-21T12:57:12.254Z,69.35
2022-11-21T12:58:27.779Z,68.77
2022-11-21T12:59:25.335Z,68.05
2022-11-21T13:00:35.097Z,68.16
2022-11-21T13:01:58.764Z,67.73
2022-11-21T13:03:04.444Z,65.59
2022-11-21T13:04:03.948Z,65.77
2022-11-21T13:05:03.370Z,68.76
2022-11-21T13:06:02.314Z,68.39